createdAt,value
2023-11-23T00:00:41.038Z,77.80
2023-11-23T00:03:08.285Z,77.80
2023-11-23T00:05:35.585Z,77.80
2023-11-23T00:08:05.109Z,77.80
2023-11-23T00:10:32.448Z,77.80
2023-11-23T00:12:59.618Z,77.80
2023-11-23T00:15:31.589Z,77.80
2023-11-23T00:17:59.177Z,77.80
2023-11-23T00:20:26.434Z,77.80
2023-11-23T00:22:54.747Z,77.90
2023-11-23T00:25:25.576Z,77.80
2023-11-23T00:27:55.972Z,77.90
2023-11-23T00:30:23.373Z,77.90
2023-11-23T00:32:53.870Z,77.80
2023-11-23T00:35:23.333Z,77.80
2023-11-23T00:37:52.765Z,77.80
2023-11-23T00:40:22.207Z,77.80
2023-11-23T00:42:49.350Z,77.80
2023-11-23T00:45:19.105Z,77.80
2023-11-23T00:47:48.672Z,77.80
2023-11-23T00:50:18.046Z,77.90
2023-11-23T00:52:45.231Z,77.90
2023-11-23T00:55:12.620Z,77.90
2023-11-23T00:57:43.957Z,77.90
2023-11-23T01:00:11.966Z,77.80
2023-11-23T01:02:39.962Z,77.80
2023-11-23T01:05:07.938Z,77.90
2023-11-23T01:07:38.328Z,77.90
2023-11-23T01:10:07.140Z,77.90
2023-11-23T01:12:35.041Z,78.60
2023-11-23T01:15:04.654Z,77.90
2023-11-23T01:17:31.932Z,77.90
2023-11-23T01:20:01.494Z,77.70
2023-11-23T01:22:33.300Z,78.00
2023-11-23T01:25:02.812Z,78.00
2023-11-23T01:27:32.346Z,77.90
2023-11-23T01:29:59.548Z,77.90
2023-11-23T01:32:29.085Z,78.00
2023-11-23T01:34:58.795Z,78.00
2023-11-23T01:37:25.948Z,78.00
2023-11-23T01:39:54.148Z,78.00
2023-11-23T01:42:21.577Z,77.90
2023-11-23T01:44:49.041Z,77.90
2023-11-23T01:47:16.708Z,77.90
2023-11-23T01:49:47.208Z,77.90
2023-11-23T01:52:16.780Z,78.00
2023-11-23T01:54:43.987Z,78.00
2023-11-23T01:57:12.474Z,78.00
2023-11-23T01:59:39.838Z,78.70
2023-11-23T02:02:09.442Z,78.00
2023-11-23T02:04:36.760Z,78.10
2023-11-23T02:07:07.075Z,78.10
2023-11-23T02:09:38.976Z,78.00
2023-11-23T02:12:11.721Z,78.00
2023-11-23T02:14:38.969Z,78.00
2023-11-23T02:17:19.424Z,78.10
2023-11-23T02:19:50.784Z,78.00
2023-11-23T02:22:18.792Z,78.00
2023-11-23T02:24:48.058Z,78.10
2023-11-23T02:27:20.287Z,78.10
2023-11-23T02:29:47.565Z,78.10
2023-11-23T02:32:14.753Z,78.20
2023-11-23T02:34:41.982Z,78.20
2023-11-23T02:37:11.648Z,78.10
2023-11-23T02:39:40.932Z,78.10
2023-11-23T02:42:13.174Z,78.10
2023-11-23T02:44:40.675Z,78.10
2023-11-23T02:47:10.945Z,78.30
2023-11-23T02:49:38.089Z,78.30
2023-11-23T02:52:06.115Z,78.30
2023-11-23T02:54:35.568Z,78.30
2023-11-23T02:57:02.732Z,78.30
2023-11-23T02:59:32.392Z,78.20
2023-11-23T03:01:59.560Z,78.20
2023-11-23T03:04:29.185Z,78.20
2023-11-23T03:06:58.654Z,78.30
2023-11-23T03:09:25.816Z,78.30
2023-11-23T03:11:55.270Z,78.30
2023-11-23T03:14:22.417Z,78.30
2023-11-23T03:16:52.157Z,78.30
2023-11-23T03:19:19.417Z,78.40
2023-11-23T03:21:47.118Z,78.30
2023-11-23T03:24:14.388Z,78.30
2023-11-23T03:26:41.633Z,78.30
2023-11-23T03:29:08.820Z,78.30
2023-11-23T03:31:36.004Z,78.30
2023-11-23T03:34:05.640Z,78.30
2023-11-23T03:36:34.994Z,78.30
2023-11-23T03:39:02.174Z,78.30
2023-11-23T03:41:31.896Z,78.30
2023-11-23T03:44:03.653Z,78.40
2023-11-23T03:46:30.842Z,78.40
2023-11-23T03:48:57.981Z,78.40
2023-11-23T03:51:25.794Z,78.40
2023-11-23T03:53:55.444Z,78.40
2023-11-23T03:56:25.387Z,78.40
2023-11-23T03:59:02.076Z,78.40
2023-11-23T04:01:32.260Z,78.40
2023-11-23T04:04:02.106Z,78.50
2023-11-23T04:06:31.580Z,78.60
2023-11-23T04:09:04.557Z,78.60
2023-11-23T04:11:31.755Z,78.50
2023-11-23T04:13:58.872Z,78.50
2023-11-23T04:16:28.602Z,78.60
2023-11-23T04:18:55.764Z,78.50
2023-11-23T04:21:22.971Z,78.50
2023-11-23T04:23:52.724Z,78.50
2023-11-23T04:26:22.089Z,78.60
2023-11-23T04:28:50.743Z,78.60
2023-11-23T04:31:22.429Z,78.50
2023-11-23T04:33:49.791Z,78.50
2023-11-23T04:36:17.217Z,78.60
2023-11-23T04:38:46.906Z,78.60
2023-11-23T04:41:16.354Z,78.60
2023-11-23T04:43:48.032Z,78.60
2023-11-23T04:46:18.219Z,78.60
2023-11-23T04:48:49.070Z,78.60
2023-11-23T04:51:17.394Z,78.60
2023-11-23T04:53:46.692Z,78.70
2023-11-23T04:56:14.309Z,78.70
2023-11-23T04:58:41.523Z,78.70
2023-11-23T05:01:10.906Z,78.70
2023-11-23T05:03:40.742Z,78.70
2023-11-23T05:06:10.413Z,78.60
2023-11-23T05:08:42.107Z,78.70
2023-11-23T05:11:13.163Z,78.60
2023-11-23T05:13:40.959Z,78.60
2023-11-23T05:16:10.918Z,78.70
2023-11-23T05:18:44.613Z,78.60
2023-11-23T05:21:12.033Z,78.60
2023-11-23T05:23:39.376Z,78.60
2023-11-23T05:26:09.070Z,78.60
2023-11-23T05:28:40.722Z,78.60
2023-11-23T05:31:10.534Z,78.60
2023-11-23T05:33:38.691Z,78.60
2023-11-23T05:36:09.868Z,78.70
2023-11-23T05:38:39.680Z,78.60
2023-11-23T05:41:11.698Z,78.60
2023-11-23T05:43:38.858Z,78.70
2023-11-23T05:46:11.192Z,78.70
2023-11-23T05:48:42.116Z,78.70
2023-11-23T05:51:11.578Z,78.70
2023-11-23T05:53:43.221Z,78.70
2023-11-23T05:56:14.794Z,78.60
2023-11-23T05:58:44.318Z,78.70
2023-11-23T06:01:13.827Z,78.70
2023-11-23T06:03:44.634Z,78.70
2023-11-23T06:06:21.002Z,78.70
2023-11-23T06:08:49.115Z,78.70
2023-11-23T06:11:22.370Z,78.70
2023-11-23T06:13:49.960Z,78.70
2023-11-23T06:16:19.627Z,78.70
2023-11-23T06:18:49.285Z,78.70
2023-11-23T06:21:18.993Z,78.70
2023-11-23T06:23:48.245Z,78.70
2023-11-23T06:26:21.663Z,78.70
2023-11-23T06:28:49.559Z,78.80
2023-11-23T06:31:18.559Z,78.70
2023-11-23T06:33:47.950Z,78.70
2023-11-23T06:36:17.389Z,78.80
2023-11-23T06:38:44.807Z,78.80
2023-11-23T06:41:24.973Z,78.90
2023-11-23T06:43:54.325Z,78.90
2023-11-23T06:46:23.916Z,78.90
2023-11-23T06:48:51.187Z,78.90
2023-11-23T06:51:22.728Z,78.80
2023-11-23T06:53:52.668Z,78.70
2023-11-23T06:56:19.949Z,78.80
2023-11-23T06:58:49.934Z,78.80
2023-11-23T07:01:17.551Z,78.80
2023-11-23T07:03:47.825Z,78.90
2023-11-23T07:06:15.438Z,78.80
2023-11-23T07:08:45.358Z,78.90
2023-11-23T07:11:19.479Z,78.80
2023-11-23T07:13:48.574Z,78.80
2023-11-23T07:16:18.502Z,78.80
2023-11-23T07:18:48.484Z,78.90
2023-11-23T07:21:16.816Z,78.90
2023-11-23T07:23:46.595Z,78.90
2023-11-23T07:26:13.829Z,78.90
2023-11-23T07:28:43.678Z,78.80
2023-11-23T07:31:13.461Z,78.90
2023-11-23T07:33:40.828Z,78.90
2023-11-23T07:36:08.625Z,78.90
2023-11-23T07:38:35.878Z,78.90
2023-11-23T07:41:03.307Z,78.90
2023-11-23T07:43:32.355Z,78.90
2023-11-23T07:46:01.396Z,78.80
2023-11-23T07:48:28.932Z,78.90
2023-11-23T07:50:58.902Z,78.80
2023-11-23T07:53:31.779Z,78.80
2023-11-23T07:55:59.223Z,78.90
2023-11-23T07:58:28.736Z,79.60
2023-11-23T08:01:00.830Z,78.90
2023-11-23T08:03:28.040Z,78.90
2023-11-23T08:06:00.485Z,79.00
2023-11-23T08:08:30.553Z,79.00
2023-11-23T08:11:00.182Z,79.10
2023-11-23T08:13:29.661Z,79.00
2023-11-23T08:16:01.600Z,79.00
2023-11-23T08:18:39.881Z,79.00
2023-11-23T08:21:15.259Z,79.00
2023-11-23T08:23:44.652Z,79.00
2023-11-23T08:26:17.127Z,79.10
2023-11-23T08:28:50.405Z,79.00
2023-11-23T08:31:17.656Z,79.00
2023-11-23T08:33:44.835Z,79.10
2023-11-23T08:36:16.552Z,79.20
2023-11-23T08:38:45.951Z,79.00
2023-11-23T08:41:13.197Z,79.00
2023-11-23T08:43:40.454Z,79.00
2023-11-23T08:46:12.371Z,79.20
2023-11-23T08:48:39.627Z,79.20
2023-11-23T08:51:09.642Z,79.20
2023-11-23T08:53:41.540Z,79.20
2023-11-23T08:56:08.862Z,79.30
2023-11-23T08:58:41.606Z,79.30
2023-11-23T09:01:11.745Z,79.30
2023-11-23T09:03:39.451Z,79.30
2023-11-23T09:06:10.041Z,79.30
2023-11-23T09:08:41.362Z,79.40
2023-11-23T09:11:08.661Z,79.20
2023-11-23T09:13:37.198Z,79.30
2023-11-23T09:16:05.052Z,79.30
2023-11-23T09:18:34.780Z,79.30
2023-11-23T09:21:02.142Z,79.30
2023-11-23T09:23:29.316Z,79.30
2023-11-23T09:25:56.557Z,79.30
2023-11-23T09:28:26.456Z,79.30
2023-11-23T09:30:53.641Z,79.40
2023-11-23T09:33:24.648Z,79.40
2023-11-23T09:35:58.114Z,79.40
2023-11-23T09:38:26.243Z,79.40
2023-11-23T09:41:00.237Z,79.40
2023-11-23T09:43:27.502Z,79.40
2023-11-23T09:45:57.242Z,79.40
2023-11-23T09:48:31.079Z,79.30
2023-11-23T09:51:00.502Z,79.30
2023-11-23T09:53:29.241Z,79.50
2023-11-23T09:55:59.447Z,79.40
2023-11-23T09:58:27.546Z,79.40
2023-11-23T10:00:54.797Z,79.50
2023-11-23T10:03:24.872Z,79.50
2023-11-23T10:05:52.392Z,79.50
2023-11-23T10:08:20.616Z,79.50
2023-11-23T10:10:51.037Z,79.50
2023-11-23T10:13:20.931Z,79.50
2023-11-23T10:15:49.223Z,79.50
2023-11-23T10:18:16.685Z,79.50
2023-11-23T10:20:48.033Z,79.50
2023-11-23T10:23:21.600Z,79.50
2023-11-23T10:25:51.213Z,79.50
2023-11-23T10:28:21.633Z,79.50
2023-11-23T10:30:52.010Z,79.60
2023-11-23T10:33:20.594Z,79.50
2023-11-23T10:35:51.604Z,79.50
2023-11-23T10:38:35.431Z,79.50
2023-11-23T10:41:14.969Z,79.50
2023-11-23T10:43:49.130Z,79.50
2023-11-23T10:46:19.811Z,79.60
2023-11-23T10:48:51.249Z,79.60
2023-11-23T10:51:27.353Z,79.50
2023-11-23T10:53:57.379Z,79.50
2023-11-23T10:56:29.215Z,80.10
2023-11-23T10:59:00.363Z,79.60
2023-11-23T11:01:34.058Z,79.70
2023-11-23T11:04:04.283Z,79.60
2023-11-23T11:06:46.324Z,79.60
2023-11-23T11:09:17.621Z,79.60
2023-11-23T11:11:54.909Z,79.50
2023-11-23T11:14:32.710Z,79.60
2023-11-23T11:17:06.060Z,79.70
2023-11-23T11:19:51.550Z,79.60
2023-11-23T11:22:21.393Z,79.70
2023-11-23T11:24:58.817Z,79.70
2023-11-23T11:27:31.997Z,79.80
2023-11-23T11:30:02.413Z,79.70
2023-11-23T11:32:41.136Z,79.70
2023-11-23T11:35:09.242Z,79.80
2023-11-23T11:37:36.982Z,79.70
2023-11-23T11:40:06.989Z,79.60
2023-11-23T11:42:38.977Z,79.60
2023-11-23T11:45:16.239Z,79.50
2023-11-23T11:47:46.160Z,79.50
2023-11-23T11:50:15.963Z,79.60
2023-11-23T11:52:45.989Z,79.60
2023-11-23T11:55:17.424Z,79.60
2023-11-23T11:57:46.865Z,79.70
2023-11-23T12:00:15.638Z,79.60
2023-11-23T12:02:43.035Z,79.60
2023-11-23T12:05:18.913Z,79.50
2023-11-23T12:07:53.525Z,79.60
2023-11-23T12:10:26.551Z,79.60
2023-11-23T12:12:55.983Z,79.50
2023-11-23T12:15:25.314Z,79.60
2023-11-23T12:17:52.635Z,79.50
2023-11-23T12:20:20.578Z,79.50
2023-11-23T12:22:47.890Z,79.60
2023-11-23T12:25:19.159Z,79.60
2023-11-23T12:27:50.981Z,79.60
2023-11-23T12:30:18.512Z,79.60
2023-11-23T12:32:50.472Z,79.50
2023-11-23T12:35:20.066Z,79.60
2023-11-23T12:37:54.613Z,79.60
2023-11-23T12:40:21.896Z,79.50
2023-11-23T12:42:50.020Z,79.60
2023-11-23T12:45:17.436Z,79.60
2023-11-23T12:47:45.028Z,79.60
2023-11-23T12:50:14.835Z,79.50
2023-11-23T12:52:45.013Z,79.40
2023-11-23T12:55:21.465Z,79.40
2023-11-23T12:57:55.623Z,79.40
2023-11-23T13:00:23.878Z,79.50
2023-11-23T13:02:51.234Z,79.50
2023-11-23T13:05:21.118Z,79.50
2023-11-23T13:07:52.809Z,79.40
2023-11-23T13:10:20.800Z,79.40
2023-11-23T13:12:55.932Z,79.30
2023-11-23T13:15:29.286Z,79.40
2023-11-23T13:17:58.290Z,79.40
2023-11-23T13:20:32.802Z,79.50
2023-11-23T13:23:04.491Z,79.50
2023-11-23T13:25:31.768Z,79.40
2023-11-23T13:27:59.333Z,79.50
2023-11-23T13:30:28.468Z,79.40
2023-11-23T13:32:58.212Z,79.50
2023-11-23T13:35:28.107Z,79.50
2023-11-23T13:37:55.359Z,79.40
2023-11-23T13:40:24.997Z,79.40
2023-11-23T13:42:54.375Z,79.50
2023-11-23T13:45:24.298Z,79.50
2023-11-23T13:47:53.786Z,79.50
2023-11-23T13:50:21.228Z,79.40
2023-11-23T13:52:50.594Z,79.50
2023-11-23T13:55:25.848Z,79.60
2023-11-23T13:57:53.117Z,79.40
2023-11-23T14:00:21.537Z,79.30
2023-11-23T14:02:53.764Z,79.30
2023-11-23T14:05:28.073Z,79.30
2023-11-23T14:07:57.458Z,79.30
2023-11-23T14:10:28.421Z,79.30
2023-11-23T14:12:57.993Z,79.30
2023-11-23T14:15:27.746Z,79.30
2023-11-23T14:17:55.077Z,79.30
2023-11-23T14:20:25.122Z,79.30
2023-11-23T14:22:54.962Z,79.40
2023-11-23T14:25:23.737Z,79.30
2023-11-23T14:27:54.202Z,79.30
2023-11-23T14:30:23.890Z,79.20
2023-11-23T14:32:53.648Z,79.20
2023-11-23T14:35:22.764Z,79.30
2023-11-23T14:37:51.194Z,79.30
2023-11-23T14:40:20.270Z,79.20
2023-11-23T14:42:56.375Z,79.20
2023-11-23T14:45:28.408Z,79.30
2023-11-23T14:48:00.099Z,79.20
2023-11-23T14:50:30.221Z,79.20
2023-11-23T14:53:00.669Z,79.20
2023-11-23T14:55:27.905Z,79.20
2023-11-23T14:57:55.108Z,79.20
2023-11-23T15:00:25.759Z,79.10
2023-11-23T15:02:55.426Z,79.00
2023-11-23T15:05:25.036Z,79.10
2023-11-23T15:07:54.386Z,79.10
2023-11-23T15:10:26.256Z,79.20
2023-11-23T15:12:58.275Z,79.10
2023-11-23T15:15:30.116Z,79.20
2023-11-23T15:18:00.459Z,79.00
2023-11-23T15:20:32.389Z,79.10
2023-11-23T15:23:01.811Z,79.10
2023-11-23T15:25:31.292Z,79.10
2023-11-23T15:28:00.967Z,79.10
2023-11-23T15:30:28.226Z,79.00
2023-11-23T15:32:59.092Z,79.00
2023-11-23T15:35:30.571Z,79.00
2023-11-23T15:38:02.413Z,79.10
2023-11-23T15:40:29.585Z,78.90
2023-11-23T15:42:56.736Z,79.00
2023-11-23T15:45:26.424Z,79.10
2023-11-23T15:47:57.357Z,79.00
2023-11-23T15:50:29.283Z,79.00
2023-11-23T15:52:58.685Z,79.00
2023-11-23T15:55:26.326Z,78.90
2023-11-23T15:57:58.065Z,79.00
2023-11-23T16:00:32.805Z,79.00
2023-11-23T16:03:02.573Z,79.10
2023-11-23T16:05:32.396Z,79.00
2023-11-23T16:08:04.951Z,79.00
2023-11-23T16:10:32.518Z,79.00
2023-11-23T16:13:01.908Z,79.10
2023-11-23T16:15:31.222Z,78.90
2023-11-23T16:17:59.347Z,78.90
2023-11-23T16:20:29.048Z,78.90
2023-11-23T16:22:58.519Z,78.90
2023-11-23T16:25:30.150Z,78.90
2023-11-23T16:28:03.951Z,78.90
2023-11-23T16:30:31.179Z,78.90
2023-11-23T16:32:58.446Z,78.80
2023-11-23T16:35:27.782Z,78.80
2023-11-23T16:37:57.636Z,78.90
2023-11-23T16:40:24.880Z,78.80
2023-11-23T16:42:54.552Z,78.80
2023-11-23T16:45:22.682Z,78.80
2023-11-23T16:47:51.914Z,78.70
2023-11-23T16:50:24.899Z,79.60
2023-11-23T16:52:57.084Z,78.80
2023-11-23T16:55:24.309Z,78.70
2023-11-23T16:57:53.973Z,78.70
2023-11-23T17:00:28.016Z,78.70
2023-11-23T17:02:57.359Z,78.70
2023-11-23T17:05:25.182Z,78.60
2023-11-23T17:07:54.732Z,78.50
2023-11-23T17:10:27.411Z,78.50
2023-11-23T17:12:59.684Z,78.60
2023-11-23T17:15:29.762Z,78.60
2023-11-23T17:17:59.163Z,78.60
2023-11-23T17:20:28.672Z,78.60
2023-11-23T17:23:02.573Z,78.60
2023-11-23T17:25:39.968Z,78.60
2023-11-23T17:28:09.568Z,78.50
2023-11-23T17:30:36.946Z,78.60
2023-11-23T17:33:04.380Z,78.40
2023-11-23T17:35:34.087Z,78.50
2023-11-23T17:38:03.451Z,78.50
2023-11-23T17:40:30.648Z,78.50
2023-11-23T17:42:57.779Z,78.50
2023-11-23T17:45:27.224Z,78.50
2023-11-23T17:47:57.065Z,78.40
2023-11-23T17:50:24.310Z,78.40
2023-11-23T17:52:56.648Z,78.40
2023-11-23T17:55:26.465Z,78.40
2023-11-23T17:57:55.967Z,78.30
2023-11-23T18:00:28.596Z,78.30
2023-11-23T18:02:56.346Z,78.40
2023-11-23T18:05:23.583Z,78.40
2023-11-23T18:07:51.031Z,78.40
2023-11-23T18:10:18.300Z,78.40
2023-11-23T18:12:46.458Z,78.40
2023-11-23T18:15:14.110Z,78.50
2023-11-23T18:17:42.958Z,78.60
2023-11-23T18:20:14.534Z,78.60
2023-11-23T18:22:41.808Z,78.60
2023-11-23T18:25:13.870Z,78.60
2023-11-23T18:27:43.141Z,78.60
2023-11-23T18:30:18.194Z,78.50
2023-11-23T18:32:46.216Z,78.50
2023-11-23T18:35:13.371Z,78.50
2023-11-23T18:37:40.677Z,78.50
2023-11-23T18:40:14.444Z,78.50
2023-11-23T18:42:43.385Z,78.50
2023-11-23T18:45:16.486Z,78.60
2023-11-23T18:47:46.090Z,78.60
2023-11-23T18:50:15.680Z,78.50
2023-11-23T18:52:45.557Z,78.40
2023-11-23T18:55:16.108Z,78.50
2023-11-23T18:57:48.810Z,78.50
2023-11-23T19:00:24.512Z,78.50
2023-11-23T19:02:54.540Z,78.50
2023-11-23T19:05:22.107Z,78.40
2023-11-23T19:07:52.442Z,78.40
2023-11-23T19:10:22.291Z,78.40
2023-11-23T19:12:51.766Z,78.40
2023-11-23T19:15:26.166Z,78.50
2023-11-23T19:17:59.622Z,78.50
2023-11-23T19:20:30.504Z,78.40
2023-11-23T19:22:57.841Z,78.40
2023-11-23T19:25:30.485Z,78.40
2023-11-23T19:28:01.915Z,78.40
2023-11-23T19:30:34.188Z,78.50
2023-11-23T19:33:08.881Z,78.50
2023-11-23T19:35:39.054Z,78.50
2023-11-23T19:38:11.488Z,78.40
2023-11-23T19:40:39.493Z,78.40
2023-11-23T19:43:09.198Z,78.40
2023-11-23T19:45:38.856Z,78.40
2023-11-23T19:48:06.768Z,78.40
2023-11-23T19:50:41.485Z,78.50
2023-11-23T19:53:17.150Z,78.50
2023-11-23T19:55:46.634Z,78.50
2023-11-23T19:58:15.872Z,78.60
2023-11-23T20:00:45.311Z,78.50
2023-11-23T20:03:12.570Z,78.50
2023-11-23T20:05:39.884Z,78.60
2023-11-23T20:08:11.686Z,78.50
2023-11-23T20:10:38.909Z,78.60
2023-11-23T20:13:07.105Z,78.50
2023-11-23T20:15:37.264Z,78.80
2023-11-23T20:18:04.597Z,78.50
2023-11-23T20:20:31.801Z,78.50
2023-11-23T20:23:03.450Z,78.50
2023-11-23T20:25:33.022Z,78.40
2023-11-23T20:28:00.275Z,78.50
2023-11-23T20:30:29.748Z,78.40
2023-11-23T20:32:57.052Z,78.40
2023-11-23T20:35:27.204Z,78.50
2023-11-23T20:37:56.623Z,78.50
2023-11-23T20:40:27.583Z,78.50
2023-11-23T20:42:54.809Z,78.60
2023-11-23T20:45:25.838Z,78.40
2023-11-23T20:47:55.421Z,78.50
2023-11-23T20:50:22.932Z,78.60
2023-11-23T20:52:53.119Z,78.60
2023-11-23T20:55:22.835Z,78.50
2023-11-23T20:57:50.397Z,78.50
2023-11-23T21:00:24.048Z,78.60
2023-11-23T21:02:51.890Z,79.30
2023-11-23T21:05:19.528Z,78.50
2023-11-23T21:07:49.591Z,78.60
2023-11-23T21:10:27.681Z,78.60
2023-11-23T21:12:57.478Z,79.30
2023-11-23T21:15:27.045Z,78.60
2023-11-23T21:17:54.295Z,78.60
2023-11-23T21:20:21.815Z,78.60
2023-11-23T21:22:51.473Z,78.60
2023-11-23T21:25:23.188Z,78.70
2023-11-23T21:27:53.504Z,78.60
2023-11-23T21:30:21.699Z,78.60
2023-11-23T21:32:49.173Z,78.60
2023-11-23T21:35:20.164Z,78.70
2023-11-23T21:37:49.881Z,78.60
2023-11-23T21:40:21.156Z,78.70
2023-11-23T21:42:53.054Z,78.70
2023-11-23T21:45:20.354Z,78.70
2023-11-23T21:47:50.063Z,78.70
2023-11-23T21:50:19.946Z,78.70
2023-11-23T21:52:54.485Z,78.70
2023-11-23T21:55:27.046Z,78.70
2023-11-23T21:58:03.367Z,78.70
2023-11-23T22:00:30.921Z,78.70
2023-11-23T22:02:58.616Z,78.80
2023-11-23T22:05:27.940Z,78.70
2023-11-23T22:07:55.351Z,78.70
2023-11-23T22:10:24.776Z,78.70
2023-11-23T22:12:54.082Z,78.80
2023-11-23T22:15:24.232Z,78.80
2023-11-23T22:17:55.492Z,78.70
2023-11-23T22:20:23.055Z,78.70
2023-11-23T22:22:50.823Z,78.70
2023-11-23T22:25:21.406Z,78.70
2023-11-23T22:27:51.421Z,78.70
2023-11-23T22:30:19.558Z,78.70
2023-11-23T22:32:48.211Z,78.70
2023-11-23T22:35:23.383Z,78.80
2023-11-23T22:37:51.009Z,78.90
2023-11-23T22:40:23.488Z,78.80
2023-11-23T22:42:50.994Z,78.90
2023-11-23T22:45:20.981Z,78.80
2023-11-23T22:47:50.541Z,78.80
2023-11-23T22:50:17.760Z,78.80
2023-11-23T22:52:47.231Z,78.80
2023-11-23T22:55:16.537Z,78.80
2023-11-23T22:57:46.838Z,78.80
2023-11-23T23:00:28.764Z,78.90
2023-11-23T23:02:56.263Z,78.90
2023-11-23T23:05:44.612Z,78.80
2023-11-23T23:08:11.848Z,78.90
2023-11-23T23:10:44.312Z,78.90
2023-11-23T23:13:14.074Z,78.90
2023-11-23T23:15:41.622Z,78.90
2023-11-23T23:18:13.104Z,78.90
2023-11-23T23:20:42.637Z,78.90
2023-11-23T23:23:13.027Z,79.60
2023-11-23T23:25:40.230Z,78.70
2023-11-23T23:28:15.201Z,78.80
2023-11-23T23:30:53.805Z,78.80
2023-11-23T23:33:26.617Z,78.80
2023-11-23T23:35:58.550Z,78.80
2023-11-23T23:38:28.081Z,78.80
2023-11-23T23:40:59.803Z,78.80
2023-11-23T23:43:31.653Z,78.90
2023-11-23T23:45:59.258Z,78.80
2023-11-23T23:48:26.495Z,78.90
2023-11-23T23:50:53.954Z,78.90
2023-11-23T23:53:21.204Z,78.90
2023-11-23T23:55:49.758Z,78.90
2023-11-23T23:58:19.671Z,78.80
